Sturgeon Bay, WI

8:55 PM CDT on July 29, 2014 (GMT -0500)
MesoWest Sturgeon Bay WI US MAWN (MWISTB) Elev 737 ft | 44.89 °N, 87.37 °W | Change Station

Current weather conditions updated 55 minutes ago

Thunderstorm
Thunderstorm
65.0 °F
Feels Like 65.0 °F
N
1.0
Wind Variable Wind from WSW

Tomorrow is forecast to be nearly the same temperature as today. Showers and thunderstorms early tomorrow night.

Today
High -- | Low -- °F
--% Chance of Precip.
Yesterday
High -- | Low -- °F
Precip. -- in
5:31 AM 8:19 PM
Waxing Crescent, 9% visible
Pressure 30.00 in
Visibility 5.0 miles
Clouds Few 2200 ft
Mostly Cloudy 6000 ft
Overcast 7000 ft
Dew Point 56.0 °F
Humidity 74%
Rainfall -999.00 in
Snow Depth Not available.
UV 0 out of 12
Pollen 7.00 out of 12
Air Quality Not available.
Flu Activity Not available.
METAR KSUE 300135Z AUTO 33009KT 5SM TS FEW022 BKN060 OVC070 17/14 A3000 RMK AO1 TSB03

More Conditions Fewer Conditions

Pressure 30.00 in
Visibility 5.0 miles
Clouds Few 2200 ft
Mostly Cloudy 6000 ft
Overcast 7000 ft
Dew Point 56.0 °F
Humidity 74%
Rainfall -999.00 in
Snow Depth Not available.
UV 0 out of 12
Pollen 7.00 out of 12
Air Quality Not available.
Flu Activity Not available.
METAR KSUE 300135Z AUTO 33009KT 5SM TS FEW022 BKN060 OVC070 17/14 A3000 RMK AO1 TSB03

More Conditions Fewer Conditions

10-Day Weather Forecast

Almanac

Astronomy

Jul. 29, 2014 Rise Set
Actual Time 5:31 AM CDT 8:19 PM CDT
Civil Twilight 4:57 AM CDT 8:53 PM CDT
Nautical Twilight 4:14 AM CDT 9:36 PM CDT
Astronomical Twilight 3:24 AM CDT 10:26 PM CDT
Moon 8:17 AM CDT (7/29) 9:21 PM CDT (7/29)
Length of Visible Light 15h 55m
Length of Day
14h 47m
Tomorrow will be 2m 18s shorter.
Waxing Crescent, 9% of the Moon is Illuminated
Today
Waxing Crescent
Aug 3
First Quarter
Aug 10
Full
Aug 17
Last Quarter
Aug 25
New

Today's Extremes

State Highs State Lows

Community

WunderPhotos

Upload Photos

1,738,947 photos uploaded!

Nearby

Snow Depth

Station Depth Elevation
No new snow has been reported.

Earthquake Activity

City Distance Mag. Time & Date
No recent earthquake activity has been reported nearby.
Minimum magnitude displayed is 2.5.

Coastal Water Temperatures

Place Temperature
No Stations Reporting

Nearby Weather Stations

Station Location Temp. Dew Point Humidity Wind Precip. Elev Updated Type
Leif Everson Observatory, Sturgeon Bay, WI 61.3 °F 60 °F 96% West  at  2.0 mph 0.26 in / hr 636 ft 8:52 PM CDT Normal
Egg Harbor WI, Egg Harbor, WI 62.1 °F 62 °F 99% SW  at  0.0 mph 0.00 in / hr 650 ft 8:55 PM CDT Normal
Tyco Fire Protection, Marinette, WI 62.2 °F 59 °F 88% SE  at  1.0 mph 0.00 in / hr 617 ft 8:54 PM CDT Normal
MARITIME , Oconto, WI 66 °F - - WSW  at  11 mph 0.00 in / hr 582 ft 7:30 PM CDT MADIS

Show More Stations Show Fewer Stations